sensor_id;sensor_type;location;lat;lon;timestamp;temperature;humidity
46309;DHT22;32037;50.820;6.494;2023-01-05T00:00:05;9.90;99.90
46309;DHT22;32037;50.820;6.494;2023-01-05T00:02:38;9.80;99.90
46309;DHT22;32037;50.820;6.494;2023-01-05T00:05:08;9.90;99.90
46309;DHT22;32037;50.820;6.494;2023-01-05T00:07:37;9.90;99.90
46309;DHT22;32037;50.820;6.494;2023-01-05T00:10:06;9.90;99.90
46309;DHT22;32037;50.820;6.494;2023-01-05T00:12:59;9.80;99.90
46309;DHT22;32037;50.820;6.494;2023-01-05T00:15:47;9.90;99.90
46309;DHT22;32037;50.820;6.494;2023-01-05T00:18:35;9.90;99.90
46309;DHT22;32037;50.820;6.494;2023-01-05T00:21:21;9.90;99.90
46309;DHT22;32037;50.820;6.494;2023-01-05T00:24:07;9.90;99.90
46309;DHT22;32037;50.820;6.494;2023-01-05T00:26:37;9.90;99.90
46309;DHT22;32037;50.820;6.494;2023-01-05T00:29:05;9.90;99.90
46309;DHT22;32037;50.820;6.494;2023-01-05T00:31:35;9.90;99.90
46309;DHT22;32037;50.820;6.494;2023-01-05T00:34:04;9.90;99.90
46309;DHT22;32037;50.820;6.494;2023-01-05T00:36:32;9.90;99.90
46309;DHT22;32037;50.820;6.494;2023-01-05T00:39:01;9.90;99.90
46309;DHT22;32037;50.820;6.494;2023-01-05T00:41:29;9.90;99.90
46309;DHT22;32037;50.820;6.494;2023-01-05T00:43:58;9.90;99.90
46309;DHT22;32037;50.820;6.494;2023-01-05T00:46:26;9.90;99.90
46309;DHT22;32037;50.820;6.494;2023-01-05T00:48:56;9.90;99.90
46309;DHT22;32037;50.820;6.494;2023-01-05T00:51:25;9.90;99.90
46309;DHT22;32037;50.820;6.494;2023-01-05T00:53:54;9.90;99.90
46309;DHT22;32037;50.820;6.494;2023-01-05T00:56:22;9.90;99.90
46309;DHT22;32037;50.820;6.494;2023-01-05T00:58:52;9.90;99.90
46309;DHT22;32037;50.820;6.494;2023-01-05T01:01:21;9.90;99.90
46309;DHT22;32037;50.820;6.494;2023-01-05T01:03:50;9.90;99.90
46309;DHT22;32037;50.820;6.494;2023-01-05T01:06:20;9.90;99.90
46309;DHT22;32037;50.820;6.494;2023-01-05T01:08:49;9.90;99.90
46309;DHT22;32037;50.820;6.494;2023-01-05T01:11:22;9.90;99.90
46309;DHT22;32037;50.820;6.494;2023-01-05T01:13:50;9.90;99.90
46309;DHT22;32037;50.820;6.494;2023-01-05T01:16:19;9.90;99.90
46309;DHT22;32037;50.820;6.494;2023-01-05T01:18:48;9.90;99.90
46309;DHT22;32037;50.820;6.494;2023-01-05T01:21:19;9.90;99.90
46309;DHT22;32037;50.820;6.494;2023-01-05T01:23:47;9.80;99.90
46309;DHT22;32037;50.820;6.494;2023-01-05T01:26:16;9.90;99.90
46309;DHT22;32037;50.820;6.494;2023-01-05T01:28:46;9.90;99.90
46309;DHT22;32037;50.820;6.494;2023-01-05T01:31:15;9.90;99.90
46309;DHT22;32037;50.820;6.494;2023-01-05T01:33:44;9.90;99.90
46309;DHT22;32037;50.820;6.494;2023-01-05T01:36:14;9.90;99.90
46309;DHT22;32037;50.820;6.494;2023-01-05T01:38:44;9.90;99.90
46309;DHT22;32037;50.820;6.494;2023-01-05T01:41:13;9.90;99.90
46309;DHT22;32037;50.820;6.494;2023-01-05T01:43:44;9.90;99.90
46309;DHT22;32037;50.820;6.494;2023-01-05T01:46:16;9.90;99.90
46309;DHT22;32037;50.820;6.494;2023-01-05T01:48:48;9.90;99.90
46309;DHT22;32037;50.820;6.494;2023-01-05T01:51:22;9.90;99.90
46309;DHT22;32037;50.820;6.494;2023-01-05T01:53:56;9.90;99.90
46309;DHT22;32037;50.820;6.494;2023-01-05T01:56:28;9.90;99.90
46309;DHT22;32037;50.820;6.494;2023-01-05T01:58:58;9.90;99.90
46309;DHT22;32037;50.820;6.494;2023-01-05T02:01:28;9.90;99.90
46309;DHT22;32037;50.820;6.494;2023-01-05T02:03:59;9.90;99.90
46309;DHT22;32037;50.820;6.494;2023-01-05T02:06:28;9.90;99.90
46309;DHT22;32037;50.820;6.494;2023-01-05T02:08:58;9.90;99.90
46309;DHT22;32037;50.820;6.494;2023-01-05T02:11:34;9.90;99.90
46309;DHT22;32037;50.820;6.494;2023-01-05T02:14:22;9.90;99.90
46309;DHT22;32037;50.820;6.494;2023-01-05T02:17:03;9.90;99.90
46309;DHT22;32037;50.820;6.494;2023-01-05T02:29:14;9.90;99.90
46309;DHT22;32037;50.820;6.494;2023-01-05T02:31:53;9.90;99.90
46309;DHT22;32037;50.820;6.494;2023-01-05T02:34:29;9.90;99.90
46309;DHT22;32037;50.820;6.494;2023-01-05T02:37:04;9.90;99.90
46309;DHT22;32037;50.820;6.494;2023-01-05T02:39:41;9.90;99.90
46309;DHT22;32037;50.820;6.494;2023-01-05T02:42:15;9.90;99.90
46309;DHT22;32037;50.820;6.494;2023-01-05T02:44:45;9.90;99.90
46309;DHT22;32037;50.820;6.494;2023-01-05T02:47:37;9.90;99.90
46309;DHT22;32037;50.820;6.494;2023-01-05T02:50:11;9.90;99.90
46309;DHT22;32037;50.820;6.494;2023-01-05T02:52:47;9.90;99.90
46309;DHT22;32037;50.820;6.494;2023-01-05T02:55:20;9.90;99.90
46309;DHT22;32037;50.820;6.494;2023-01-05T02:57:55;9.90;99.90
46309;DHT22;32037;50.820;6.494;2023-01-05T03:00:29;9.90;99.90
46309;DHT22;32037;50.820;6.494;2023-01-05T03:03:05;9.90;99.90
46309;DHT22;32037;50.820;6.494;2023-01-05T03:05:40;9.90;99.90
46309;DHT22;32037;50.820;6.494;2023-01-05T03:08:11;9.90;99.90
46309;DHT22;32037;50.820;6.494;2023-01-05T03:10:59;9.90;99.90
46309;DHT22;32037;50.820;6.494;2023-01-05T03:13:49;9.90;99.90
46309;DHT22;32037;50.820;6.494;2023-01-05T03:16:23;9.90;99.90
46309;DHT22;32037;50.820;6.494;2023-01-05T03:19:01;9.90;99.90
46309;DHT22;32037;50.820;6.494;2023-01-05T03:21:52;9.90;99.90
46309;DHT22;32037;50.820;6.494;2023-01-05T03:24:43;9.90;99.90
46309;DHT22;32037;50.820;6.494;2023-01-05T03:27:34;9.90;99.90
46309;DHT22;32037;50.820;6.494;2023-01-05T03:30:26;9.90;99.90
46309;DHT22;32037;50.820;6.494;2023-01-05T03:33:22;9.90;99.90
46309;DHT22;32037;50.820;6.494;2023-01-05T03:36:17;9.90;99.90
46309;DHT22;32037;50.820;6.494;2023-01-05T03:38:47;9.90;99.90
46309;DHT22;32037;50.820;6.494;2023-01-05T03:41:19;9.90;99.90
46309;DHT22;32037;50.820;6.494;2023-01-05T03:43:50;9.90;99.90
46309;DHT22;32037;50.820;6.494;2023-01-05T03:46:20;9.90;99.90
46309;DHT22;32037;50.820;6.494;2023-01-05T03:48:51;9.90;99.90
46309;DHT22;32037;50.820;6.494;2023-01-05T03:51:21;9.90;99.90
46309;DHT22;32037;50.820;6.494;2023-01-05T03:53:50;9.90;99.90
46309;DHT22;32037;50.820;6.494;2023-01-05T03:56:19;9.90;99.90
46309;DHT22;32037;50.820;6.494;2023-01-05T03:58:47;9.90;99.90
46309;DHT22;32037;50.820;6.494;2023-01-05T04:01:16;9.90;99.90
46309;DHT22;32037;50.820;6.494;2023-01-05T04:03:45;9.90;99.90
46309;DHT22;32037;50.820;6.494;2023-01-05T04:06:14;9.90;99.90
46309;DHT22;32037;50.820;6.494;2023-01-05T04:08:44;9.90;99.90
46309;DHT22;32037;50.820;6.494;2023-01-05T04:11:14;9.90;99.90
46309;DHT22;32037;50.820;6.494;2023-01-05T04:13:49;9.90;99.90
46309;DHT22;32037;50.820;6.494;2023-01-05T04:16:18;9.90;99.90
46309;DHT22;32037;50.820;6.494;2023-01-05T04:18:49;9.90;99.90
46309;DHT22;32037;50.820;6.494;2023-01-05T04:21:20;9.90;99.90
46309;DHT22;32037;50.820;6.494;2023-01-05T04:23:53;9.90;99.90
46309;DHT22;32037;50.820;6.494;2023-01-05T04:26:23;9.90;99.90
46309;DHT22;32037;50.820;6.494;2023-01-05T04:28:52;9.90;99.90
46309;DHT22;32037;50.820;6.494;2023-01-05T04:31:23;9.90;99.90
46309;DHT22;32037;50.820;6.494;2023-01-05T04:33:55;9.90;99.90
46309;DHT22;32037;50.820;6.494;2023-01-05T04:36:25;9.90;99.90
46309;DHT22;32037;50.820;6.494;2023-01-05T04:38:57;9.90;99.90
46309;DHT22;32037;50.820;6.494;2023-01-05T04:41:28;9.90;99.90
46309;DHT22;32037;50.820;6.494;2023-01-05T04:43:57;9.90;99.90
46309;DHT22;32037;50.820;6.494;2023-01-05T04:46:26;9.90;99.90
46309;DHT22;32037;50.820;6.494;2023-01-05T04:48:57;9.90;99.90
46309;DHT22;32037;50.820;6.494;2023-01-05T04:51:26;9.90;99.90
46309;DHT22;32037;50.820;6.494;2023-01-05T04:53:56;9.90;99.90
46309;DHT22;32037;50.820;6.494;2023-01-05T04:56:25;9.90;99.90
46309;DHT22;32037;50.820;6.494;2023-01-05T04:58:53;9.90;99.90
46309;DHT22;32037;50.820;6.494;2023-01-05T05:01:23;9.90;99.90
46309;DHT22;32037;50.820;6.494;2023-01-05T05:03:54;9.90;99.90
46309;DHT22;32037;50.820;6.494;2023-01-05T05:06:25;9.90;99.90
46309;DHT22;32037;50.820;6.494;2023-01-05T05:08:56;9.90;99.90
46309;DHT22;32037;50.820;6.494;2023-01-05T05:11:26;9.90;99.90
46309;DHT22;32037;50.820;6.494;2023-01-05T05:13:55;9.90;99.90
46309;DHT22;32037;50.820;6.494;2023-01-05T05:16:24;9.90;99.90
46309;DHT22;32037;50.820;6.494;2023-01-05T05:18:53;9.90;99.90
46309;DHT22;32037;50.820;6.494;2023-01-05T05:21:25;9.90;99.90
46309;DHT22;32037;50.820;6.494;2023-01-05T05:23:53;9.90;99.90
46309;DHT22;32037;50.820;6.494;2023-01-05T05:26:23;9.90;99.90
46309;DHT22;32037;50.820;6.494;2023-01-05T05:28:53;9.90;99.90
46309;DHT22;32037;50.820;6.494;2023-01-05T05:31:22;9.90;99.90
46309;DHT22;32037;50.820;6.494;2023-01-05T05:33:50;9.90;99.90
46309;DHT22;32037;50.820;6.494;2023-01-05T05:36:19;9.90;99.90
46309;DHT22;32037;50.820;6.494;2023-01-05T05:38:47;9.90;99.90
46309;DHT22;32037;50.820;6.494;2023-01-05T05:41:16;9.90;99.90
46309;DHT22;32037;50.820;6.494;2023-01-05T05:43:46;9.90;99.90
46309;DHT22;32037;50.820;6.494;2023-01-05T05:46:15;9.90;99.90
46309;DHT22;32037;50.820;6.494;2023-01-05T05:48:43;9.90;99.90
46309;DHT22;32037;50.820;6.494;2023-01-05T05:51:12;9.90;99.90
46309;DHT22;32037;50.820;6.494;2023-01-05T05:53:40;9.90;99.90
46309;DHT22;32037;50.820;6.494;2023-01-05T05:56:09;9.90;99.90
46309;DHT22;32037;50.820;6.494;2023-01-05T05:58:37;9.90;99.90
46309;DHT22;32037;50.820;6.494;2023-01-05T06:01:07;9.90;99.90
46309;DHT22;32037;50.820;6.494;2023-01-05T06:03:36;9.90;99.90
46309;DHT22;32037;50.820;6.494;2023-01-05T06:06:05;9.90;99.90
46309;DHT22;32037;50.820;6.494;2023-01-05T06:08:34;9.90;99.90
46309;DHT22;32037;50.820;6.494;2023-01-05T06:11:03;9.90;99.90
46309;DHT22;32037;50.820;6.494;2023-01-05T06:13:32;9.90;99.90
46309;DHT22;32037;50.820;6.494;2023-01-05T06:16:00;9.90;99.90
46309;DHT22;32037;50.820;6.494;2023-01-05T06:18:31;9.90;99.90
46309;DHT22;32037;50.820;6.494;2023-01-05T06:20:59;9.90;99.90
46309;DHT22;32037;50.820;6.494;2023-01-05T06:23:28;9.90;99.90
46309;DHT22;32037;50.820;6.494;2023-01-05T06:25:57;9.90;99.90
46309;DHT22;32037;50.820;6.494;2023-01-05T06:28:25;9.90;99.90
46309;DHT22;32037;50.820;6.494;2023-01-05T06:30:54;9.90;99.90
46309;DHT22;32037;50.820;6.494;2023-01-05T06:33:22;9.90;99.90
46309;DHT22;32037;50.820;6.494;2023-01-05T06:35:52;9.90;99.90
46309;DHT22;32037;50.820;6.494;2023-01-05T06:38:21;9.90;99.90
46309;DHT22;32037;50.820;6.494;2023-01-05T06:40:50;9.90;99.90
46309;DHT22;32037;50.820;6.494;2023-01-05T06:43:19;9.90;99.90
46309;DHT22;32037;50.820;6.494;2023-01-05T06:45:47;9.90;99.90
46309;DHT22;32037;50.820;6.494;2023-01-05T06:48:16;9.90;99.90
46309;DHT22;32037;50.820;6.494;2023-01-05T06:50:45;9.90;99.90
46309;DHT22;32037;50.820;6.494;2023-01-05T06:53:15;9.90;99.90
46309;DHT22;32037;50.820;6.494;2023-01-05T06:55:43;9.90;99.90
46309;DHT22;32037;50.820;6.494;2023-01-05T06:58:12;9.90;99.90
46309;DHT22;32037;50.820;6.494;2023-01-05T07:00:40;9.90;99.90
46309;DHT22;32037;50.820;6.494;2023-01-05T07:03:11;9.90;99.90
46309;DHT22;32037;50.820;6.494;2023-01-05T07:05:40;9.90;99.90
46309;DHT22;32037;50.820;6.494;2023-01-05T07:08:09;9.90;99.90
46309;DHT22;32037;50.820;6.494;2023-01-05T07:10:39;9.90;99.90
46309;DHT22;32037;50.820;6.494;2023-01-05T07:13:08;9.90;99.90
46309;DHT22;32037;50.820;6.494;2023-01-05T07:15:37;9.90;99.90
46309;DHT22;32037;50.820;6.494;2023-01-05T07:18:05;9.90;99.90
46309;DHT22;32037;50.820;6.494;2023-01-05T07:20:34;9.90;99.90
46309;DHT22;32037;50.820;6.494;2023-01-05T07:23:03;9.90;99.90
46309;DHT22;32037;50.820;6.494;2023-01-05T07:25:32;9.90;99.90
46309;DHT22;32037;50.820;6.494;2023-01-05T07:28:02;9.90;99.90
46309;DHT22;32037;50.820;6.494;2023-01-05T07:30:30;9.90;99.90
46309;DHT22;32037;50.820;6.494;2023-01-05T07:32:59;9.90;99.90
46309;DHT22;32037;50.820;6.494;2023-01-05T07:35:28;9.90;99.90
46309;DHT22;32037;50.820;6.494;2023-01-05T07:37:57;9.90;99.90
46309;DHT22;32037;50.820;6.494;2023-01-05T07:40:25;9.90;99.90
46309;DHT22;32037;50.820;6.494;2023-01-05T07:42:54;9.90;99.90
46309;DHT22;32037;50.820;6.494;2023-01-05T07:45:25;9.90;99.90
46309;DHT22;32037;50.820;6.494;2023-01-05T07:47:54;9.90;99.90
46309;DHT22;32037;50.820;6.494;2023-01-05T07:50:24;9.90;99.90
46309;DHT22;32037;50.820;6.494;2023-01-05T07:52:54;9.90;99.90
46309;DHT22;32037;50.820;6.494;2023-01-05T07:55:24;9.90;99.90
46309;DHT22;32037;50.820;6.494;2023-01-05T07:57:53;9.90;99.90
46309;DHT22;32037;50.820;6.494;2023-01-05T08:00:22;9.90;99.90
46309;DHT22;32037;50.820;6.494;2023-01-05T08:02:52;9.90;99.90
46309;DHT22;32037;50.820;6.494;2023-01-05T08:05:22;9.90;99.90
46309;DHT22;32037;50.820;6.494;2023-01-05T08:07:52;9.90;99.90
46309;DHT22;32037;50.820;6.494;2023-01-05T08:10:20;9.90;99.90
46309;DHT22;32037;50.820;6.494;2023-01-05T08:13:03;9.90;99.90
46309;DHT22;32037;50.820;6.494;2023-01-05T08:15:50;9.90;99.90
46309;DHT22;32037;50.820;6.494;2023-01-05T08:18:21;9.90;99.90
46309;DHT22;32037;50.820;6.494;2023-01-05T08:20:51;9.90;99.90
46309;DHT22;32037;50.820;6.494;2023-01-05T08:23:20;9.90;99.90
46309;DHT22;32037;50.820;6.494;2023-01-05T08:25:53;9.90;99.90
46309;DHT22;32037;50.820;6.494;2023-01-05T08:28:23;9.90;99.90
46309;DHT22;32037;50.820;6.494;2023-01-05T08:31:02;9.90;99.90
46309;DHT22;32037;50.820;6.494;2023-01-05T08:33:36;9.90;99.90
46309;DHT22;32037;50.820;6.494;2023-01-05T08:36:08;9.80;99.90
46309;DHT22;32037;50.820;6.494;2023-01-05T08:38:38;9.90;99.90
46309;DHT22;32037;50.820;6.494;2023-01-05T08:41:16;9.90;99.90
46309;DHT22;32037;50.820;6.494;2023-01-05T08:43:49;9.90;99.90
46309;DHT22;32037;50.820;6.494;2023-01-05T08:46:19;9.90;99.90
46309;DHT22;32037;50.820;6.494;2023-01-05T08:48:53;9.90;99.90
46309;DHT22;32037;50.820;6.494;2023-01-05T08:51:22;9.80;99.90
46309;DHT22;32037;50.820;6.494;2023-01-05T08:53:52;9.90;99.90
46309;DHT22;32037;50.820;6.494;2023-01-05T08:56:22;9.90;99.90
46309;DHT22;32037;50.820;6.494;2023-01-05T08:58:54;9.90;99.90
46309;DHT22;32037;50.820;6.494;2023-01-05T09:01:28;9.90;99.90
46309;DHT22;32037;50.820;6.494;2023-01-05T09:04:02;9.90;99.90
46309;DHT22;32037;50.820;6.494;2023-01-05T09:06:31;9.80;99.90
46309;DHT22;32037;50.820;6.494;2023-01-05T09:09:00;9.90;99.90
46309;DHT22;32037;50.820;6.494;2023-01-05T09:11:29;9.90;99.90
46309;DHT22;32037;50.820;6.494;2023-01-05T09:13:59;9.90;99.90
46309;DHT22;32037;50.820;6.494;2023-01-05T09:16:32;9.90;99.90
46309;DHT22;32037;50.820;6.494;2023-01-05T09:19:22;9.90;99.90
46309;DHT22;32037;50.820;6.494;2023-01-05T09:21:52;9.90;99.90
46309;DHT22;32037;50.820;6.494;2023-01-05T09:24:23;9.90;99.90
46309;DHT22;32037;50.820;6.494;2023-01-05T09:26:52;9.90;99.90
46309;DHT22;32037;50.820;6.494;2023-01-05T09:29:21;9.90;99.90
46309;DHT22;32037;50.820;6.494;2023-01-05T09:31:50;9.90;99.90
46309;DHT22;32037;50.820;6.494;2023-01-05T09:34:21;9.90;99.90
46309;DHT22;32037;50.820;6.494;2023-01-05T09:36:51;9.90;99.90
46309;DHT22;32037;50.820;6.494;2023-01-05T09:39:20;9.90;99.90
46309;DHT22;32037;50.820;6.494;2023-01-05T09:41:52;9.90;99.90
46309;DHT22;32037;50.820;6.494;2023-01-05T09:44:27;9.90;99.90
46309;DHT22;32037;50.820;6.494;2023-01-05T09:47:01;9.90;99.90
46309;DHT22;32037;50.820;6.494;2023-01-05T09:49:34;9.90;99.90
46309;DHT22;32037;50.820;6.494;2023-01-05T09:52:05;9.90;99.90
46309;DHT22;32037;50.820;6.494;2023-01-05T09:54:38;9.90;99.90
46309;DHT22;32037;50.820;6.494;2023-01-05T09:57:14;9.90;99.90
46309;DHT22;32037;50.820;6.494;2023-01-05T09:59:45;9.90;99.90
46309;DHT22;32037;50.820;6.494;2023-01-05T10:02:24;9.90;99.90
46309;DHT22;32037;50.820;6.494;2023-01-05T10:04:59;9.90;99.90
46309;DHT22;32037;50.820;6.494;2023-01-05T10:07:39;9.90;99.90
46309;DHT22;32037;50.820;6.494;2023-01-05T10:10:19;9.90;99.90
46309;DHT22;32037;50.820;6.494;2023-01-05T10:12:58;9.90;99.90
46309;DHT22;32037;50.820;6.494;2023-01-05T10:15:41;9.90;99.90
46309;DHT22;32037;50.820;6.494;2023-01-05T10:18:14;9.90;99.90
46309;DHT22;32037;50.820;6.494;2023-01-05T10:20:53;9.90;99.90
46309;DHT22;32037;50.820;6.494;2023-01-05T10:23:38;9.90;99.90
46309;DHT22;32037;50.820;6.494;2023-01-05T10:26:16;9.90;99.90
46309;DHT22;32037;50.820;6.494;2023-01-05T10:28:50;9.90;99.90
46309;DHT22;32037;50.820;6.494;2023-01-05T10:31:23;9.90;99.90
46309;DHT22;32037;50.820;6.494;2023-01-05T10:34:00;9.90;99.90
46309;DHT22;32037;50.820;6.494;2023-01-05T10:36:55;9.90;99.90
46309;DHT22;32037;50.820;6.494;2023-01-05T10:39:54;9.90;99.90
46309;DHT22;32037;50.820;6.494;2023-01-05T10:42:43;9.90;99.90
46309;DHT22;32037;50.820;6.494;2023-01-05T10:45:16;9.90;99.90
46309;DHT22;32037;50.820;6.494;2023-01-05T10:47:47;9.90;99.90
46309;DHT22;32037;50.820;6.494;2023-01-05T10:50:34;9.90;99.90
46309;DHT22;32037;50.820;6.494;2023-01-05T10:53:09;9.90;99.90
46309;DHT22;32037;50.820;6.494;2023-01-05T10:55:44;9.90;99.90
46309;DHT22;32037;50.820;6.494;2023-01-05T10:58:23;9.90;99.90
46309;DHT22;32037;50.820;6.494;2023-01-05T11:00:54;9.90;99.90
46309;DHT22;32037;50.820;6.494;2023-01-05T11:03:34;9.90;99.90
46309;DHT22;32037;50.820;6.494;2023-01-05T11:06:26;9.90;99.90
46309;DHT22;32037;50.820;6.494;2023-01-05T11:09:05;9.90;99.90
46309;DHT22;32037;50.820;6.494;2023-01-05T11:11:34;9.90;99.90
46309;DHT22;32037;50.820;6.494;2023-01-05T11:14:04;9.90;99.90
46309;DHT22;32037;50.820;6.494;2023-01-05T11:16:36;9.90;99.90
46309;DHT22;32037;50.820;6.494;2023-01-05T11:19:10;9.90;99.90
46309;DHT22;32037;50.820;6.494;2023-01-05T11:21:43;9.90;99.90
46309;DHT22;32037;50.820;6.494;2023-01-05T11:24:30;9.90;99.90
46309;DHT22;32037;50.820;6.494;2023-01-05T11:27:00;9.90;99.90
46309;DHT22;32037;50.820;6.494;2023-01-05T11:29:29;9.90;99.90
46309;DHT22;32037;50.820;6.494;2023-01-05T11:32:02;9.90;99.90
46309;DHT22;32037;50.820;6.494;2023-01-05T11:34:36;9.90;99.90
46309;DHT22;32037;50.820;6.494;2023-01-05T11:37:12;9.90;99.90
46309;DHT22;32037;50.820;6.494;2023-01-05T11:39:48;9.90;99.90
46309;DHT22;32037;50.820;6.494;2023-01-05T11:42:19;9.90;99.90
46309;DHT22;32037;50.820;6.494;2023-01-05T11:44:54;10.00;99.90
46309;DHT22;32037;50.820;6.494;2023-01-05T11:47:29;9.90;99.90
46309;DHT22;32037;50.820;6.494;2023-01-05T11:50:16;10.00;99.90
46309;DHT22;32037;50.820;6.494;2023-01-05T11:52:49;10.00;99.90
46309;DHT22;32037;50.820;6.494;2023-01-05T11:55:37;10.00;99.90
46309;DHT22;32037;50.820;6.494;2023-01-05T11:58:23;10.00;99.90
46309;DHT22;32037;50.820;6.494;2023-01-05T12:04:28;10.00;99.90
46309;DHT22;32037;50.820;6.494;2023-01-05T12:07:14;10.00;99.90
46309;DHT22;32037;50.820;6.494;2023-01-05T12:09:48;10.00;99.90
46309;DHT22;32037;50.820;6.494;2023-01-05T12:12:39;10.00;99.90
46309;DHT22;32037;50.820;6.494;2023-01-05T12:18:24;10.00;99.90
46309;DHT22;32037;50.820;6.494;2023-01-05T12:20:56;10.00;99.90
46309;DHT22;32037;50.820;6.494;2023-01-05T12:23:56;10.00;99.90
46309;DHT22;32037;50.820;6.494;2023-01-05T12:26:28;10.00;99.90
46309;DHT22;32037;50.820;6.494;2023-01-05T12:29:18;10.00;99.90
46309;DHT22;32037;50.820;6.494;2023-01-05T12:32:28;10.00;99.90
46309;DHT22;32037;50.820;6.494;2023-01-05T12:35:35;10.00;99.90
46309;DHT22;32037;50.820;6.494;2023-01-05T12:38:35;10.00;99.90
46309;DHT22;32037;50.820;6.494;2023-01-05T12:44:44;10.00;99.90
46309;DHT22;32037;50.820;6.494;2023-01-05T12:47:35;10.00;99.90
46309;DHT22;32037;50.820;6.494;2023-01-05T12:50:22;10.00;99.90
46309;DHT22;32037;50.820;6.494;2023-01-05T12:52:57;10.00;99.90
46309;DHT22;32037;50.820;6.494;2023-01-05T12:55:28;10.00;99.90
46309;DHT22;32037;50.820;6.494;2023-01-05T12:58:03;10.00;99.90
46309;DHT22;32037;50.820;6.494;2023-01-05T13:00:36;10.00;99.90
46309;DHT22;32037;50.820;6.494;2023-01-05T13:03:18;10.00;99.90
46309;DHT22;32037;50.820;6.494;2023-01-05T13:05:52;10.00;99.90
46309;DHT22;32037;50.820;6.494;2023-01-05T13:08:25;10.00;99.90
46309;DHT22;32037;50.820;6.494;2023-01-05T13:11:00;10.00;99.90
46309;DHT22;32037;50.820;6.494;2023-01-05T13:13:35;10.00;99.90
46309;DHT22;32037;50.820;6.494;2023-01-05T13:16:12;10.00;99.90
46309;DHT22;32037;50.820;6.494;2023-01-05T13:18:46;10.00;99.90
46309;DHT22;32037;50.820;6.494;2023-01-05T13:21:17;10.00;99.90
46309;DHT22;32037;50.820;6.494;2023-01-05T13:23:49;10.00;99.90
46309;DHT22;32037;50.820;6.494;2023-01-05T13:26:20;10.00;99.90
46309;DHT22;32037;50.820;6.494;2023-01-05T13:28:52;10.00;99.90
46309;DHT22;32037;50.820;6.494;2023-01-05T13:31:45;10.00;99.90
46309;DHT22;32037;50.820;6.494;2023-01-05T13:34:46;10.00;99.90
46309;DHT22;32037;50.820;6.494;2023-01-05T13:37:36;10.00;99.90
46309;DHT22;32037;50.820;6.494;2023-01-05T13:40:20;10.00;99.90
46309;DHT22;32037;50.820;6.494;2023-01-05T13:46:09;10.00;99.90
46309;DHT22;32037;50.820;6.494;2023-01-05T13:49:03;10.00;99.90
46309;DHT22;32037;50.820;6.494;2023-01-05T13:51:52;10.00;99.90
46309;DHT22;32037;50.820;6.494;2023-01-05T13:54:33;10.00;99.90
46309;DHT22;32037;50.820;6.494;2023-01-05T13:57:22;10.00;99.90
46309;DHT22;32037;50.820;6.494;2023-01-05T13:59:54;10.00;99.90
46309;DHT22;32037;50.820;6.494;2023-01-05T14:02:40;10.00;99.90
46309;DHT22;32037;50.820;6.494;2023-01-05T14:05:21;10.00;99.90
46309;DHT22;32037;50.820;6.494;2023-01-05T14:07:51;10.00;99.90
46309;DHT22;32037;50.820;6.494;2023-01-05T14:10:23;10.00;99.90
46309;DHT22;32037;50.820;6.494;2023-01-05T14:12:53;10.00;99.90
46309;DHT22;32037;50.820;6.494;2023-01-05T14:15:37;10.00;99.90
46309;DHT22;32037;50.820;6.494;2023-01-05T14:18:06;10.00;99.90
46309;DHT22;32037;50.820;6.494;2023-01-05T14:20:45;10.00;99.90
46309;DHT22;32037;50.820;6.494;2023-01-05T14:32:36;10.00;99.90
46309;DHT22;32037;50.820;6.494;2023-01-05T14:35:17;10.00;99.90
46309;DHT22;32037;50.820;6.494;2023-01-05T14:37:55;10.00;99.90
46309;DHT22;32037;50.820;6.494;2023-01-05T14:40:36;10.00;99.90
46309;DHT22;32037;50.820;6.494;2023-01-05T14:43:18;10.00;99.90
46309;DHT22;32037;50.820;6.494;2023-01-05T14:46:01;10.00;99.90
46309;DHT22;32037;50.820;6.494;2023-01-05T14:48:32;10.00;99.90
46309;DHT22;32037;50.820;6.494;2023-01-05T14:51:21;10.00;99.90
46309;DHT22;32037;50.820;6.494;2023-01-05T14:53:55;10.00;99.90
46309;DHT22;32037;50.820;6.494;2023-01-05T14:56:31;10.00;99.90
46309;DHT22;32037;50.820;6.494;2023-01-05T14:59:15;10.00;99.90
46309;DHT22;32037;50.820;6.494;2023-01-05T15:01:52;10.00;99.90
46309;DHT22;32037;50.820;6.494;2023-01-05T15:04:24;10.10;99.90
46309;DHT22;32037;50.820;6.494;2023-01-05T15:07:10;10.10;99.90
46309;DHT22;32037;50.820;6.494;2023-01-05T15:12:57;10.30;99.90
46309;DHT22;32037;50.820;6.494;2023-01-05T15:15:44;10.30;99.90
46309;DHT22;32037;50.820;6.494;2023-01-05T15:18:36;10.40;99.90
46309;DHT22;32037;50.820;6.494;2023-01-05T15:24:47;10.40;99.90
46309;DHT22;32037;50.820;6.494;2023-01-05T15:27:37;10.40;99.90
46309;DHT22;32037;50.820;6.494;2023-01-05T15:30:18;10.50;99.90
46309;DHT22;32037;50.820;6.494;2023-01-05T15:32:53;10.50;99.90
46309;DHT22;32037;50.820;6.494;2023-01-05T15:35:31;10.50;99.90
46309;DHT22;32037;50.820;6.494;2023-01-05T15:38:18;10.50;99.90
46309;DHT22;32037;50.820;6.494;2023-01-05T15:40:48;10.50;99.90
46309;DHT22;32037;50.820;6.494;2023-01-05T15:43:20;10.50;99.90
46309;DHT22;32037;50.820;6.494;2023-01-05T15:45:51;10.50;99.90
46309;DHT22;32037;50.820;6.494;2023-01-05T15:48:25;10.50;99.90
46309;DHT22;32037;50.820;6.494;2023-01-05T15:50:56;10.50;99.90
46309;DHT22;32037;50.820;6.494;2023-01-05T15:53:28;10.50;99.90
46309;DHT22;32037;50.820;6.494;2023-01-05T15:55:58;10.60;99.90
46309;DHT22;32037;50.820;6.494;2023-01-05T15:58:29;10.50;99.90
46309;DHT22;32037;50.820;6.494;2023-01-05T16:01:01;10.60;99.90
46309;DHT22;32037;50.820;6.494;2023-01-05T16:03:32;10.60;99.90
46309;DHT22;32037;50.820;6.494;2023-01-05T16:06:03;10.60;99.90
46309;DHT22;32037;50.820;6.494;2023-01-05T16:08:38;10.60;99.90
46309;DHT22;32037;50.820;6.494;2023-01-05T16:11:10;10.60;99.90
46309;DHT22;32037;50.820;6.494;2023-01-05T16:13:42;10.60;99.90
46309;DHT22;32037;50.820;6.494;2023-01-05T16:16:16;10.60;99.90
46309;DHT22;32037;50.820;6.494;2023-01-05T16:19:08;10.60;99.90
46309;DHT22;32037;50.820;6.494;2023-01-05T16:21:42;10.60;99.90
46309;DHT22;32037;50.820;6.494;2023-01-05T16:24:16;10.60;99.90
46309;DHT22;32037;50.820;6.494;2023-01-05T16:26:45;10.60;99.90
46309;DHT22;32037;50.820;6.494;2023-01-05T16:29:31;10.60;99.90
46309;DHT22;32037;50.820;6.494;2023-01-05T16:32:02;10.60;99.90
46309;DHT22;32037;50.820;6.494;2023-01-05T16:34:31;10.60;99.90
46309;DHT22;32037;50.820;6.494;2023-01-05T16:37:01;10.60;99.90
46309;DHT22;32037;50.820;6.494;2023-01-05T16:39:38;10.60;99.90
46309;DHT22;32037;50.820;6.494;2023-01-05T16:42:13;10.60;99.90
46309;DHT22;32037;50.820;6.494;2023-01-05T16:45:08;10.60;99.90
46309;DHT22;32037;50.820;6.494;2023-01-05T16:47:45;10.60;99.90
46309;DHT22;32037;50.820;6.494;2023-01-05T16:50:51;10.60;99.90
46309;DHT22;32037;50.820;6.494;2023-01-05T16:53:20;10.60;99.90
46309;DHT22;32037;50.820;6.494;2023-01-05T16:55:51;10.60;99.90
46309;DHT22;32037;50.820;6.494;2023-01-05T16:58:35;10.60;99.90
46309;DHT22;32037;50.820;6.494;2023-01-05T17:01:22;10.60;99.90
46309;DHT22;32037;50.820;6.494;2023-01-05T17:03:52;10.60;99.90
46309;DHT22;32037;50.820;6.494;2023-01-05T17:06:25;10.60;99.90